createdAt,value
2018-03-09T00:00:24.014Z,1016.26
2018-03-09T00:01:24.002Z,1016.33
2018-03-09T00:02:23.996Z,1016.42
2018-03-09T00:03:23.980Z,1016.47
2018-03-09T00:04:23.969Z,1016.5
2018-03-09T00:05:23.959Z,1016.48
2018-03-09T00:06:23.952Z,1016.52
2018-03-09T00:07:23.974Z,1016.52
2018-03-09T00:08:23.926Z,1016.51
2018-03-09T00:09:23.914Z,1016.47
2018-03-09T00:10:23.903Z,1016.5
2018-03-09T00:11:23.891Z,1016.42
2018-03-09T00:12:23.892Z,1016.48
2018-03-09T00:13:23.870Z,1016.55
2018-03-09T00:14:23.858Z,1016.62
2018-03-09T00:15:23.846Z,1016.71
2018-03-09T00:16:23.833Z,1016.83
2018-03-09T00:17:23.823Z,1016.91
2018-03-09T00:18:23.811Z,1016.99
2018-03-09T00:19:23.800Z,1017.09
2018-03-09T00:20:23.790Z,1017.17
2018-03-09T00:21:23.776Z,1017.21
2018-03-09T00:22:23.765Z,1017.27
2018-03-09T00:23:23.753Z,1017.36
2018-03-09T00:24:23.742Z,1017.44
2018-03-09T00:25:23.729Z,1017.5
2018-03-09T00:26:23.719Z,1017.54
2018-03-09T00:27:23.705Z,1017.64
2018-03-09T00:28:23.693Z,1017.7
2018-03-09T00:29:23.683Z,1017.72
2018-03-09T00:30:23.671Z,1017.76
2018-03-09T00:31:23.657Z,1017.86
2018-03-09T00:32:23.658Z,1017.88
2018-03-09T00:33:23.634Z,1017.88
2018-03-09T00:34:23.622Z,1018.04
2018-03-09T00:35:23.608Z,1018.08
2018-03-09T00:36:23.599Z,1018.11
2018-03-09T00:37:23.584Z,1018.11
2018-03-09T00:38:23.570Z,1018.13
2018-03-09T00:39:23.559Z,1018.16
2018-03-09T00:40:23.546Z,1018.18
2018-03-09T00:41:23.534Z,1018.19
2018-03-09T00:42:23.520Z,1018.22
2018-03-09T00:43:23.509Z,1018.18
2018-03-09T00:44:23.495Z,1018.25
2018-03-09T00:45:23.484Z,1018.26
2018-03-09T00:46:23.471Z,1018.27
2018-03-09T00:47:23.458Z,1018.26
2018-03-09T00:48:23.446Z,1018.22
2018-03-09T00:49:23.432Z,1018.27
2018-03-09T00:50:23.420Z,1018.26
2018-03-09T00:51:23.406Z,1018.31
2018-03-09T00:52:23.394Z,1018.35
2018-03-09T00:53:23.381Z,1018.43
2018-03-09T00:54:23.367Z,1018.44
2018-03-09T00:55:23.355Z,1018.45
2018-03-09T00:56:23.343Z,1018.46
2018-03-09T00:57:23.329Z,1018.4
2018-03-09T00:58:23.318Z,1018.45
2018-03-09T00:59:23.302Z,1018.43
2018-03-09T01:00:23.288Z,1018.45
2018-03-09T01:01:23.276Z,1018.46
2018-03-09T01:02:23.263Z,1018.44
2018-03-09T01:03:23.249Z,1018.44
2018-03-09T01:04:23.236Z,1018.42
2018-03-09T01:05:23.222Z,1018.42
2018-03-09T01:06:23.208Z,1018.42
2018-03-09T01:07:23.195Z,1018.42
2018-03-09T01:08:23.183Z,1018.39
2018-03-09T01:09:23.184Z,1018.37
2018-03-09T01:10:23.155Z,1018.3
2018-03-09T01:11:23.141Z,1018.34
2018-03-09T01:12:23.129Z,1018.26
2018-03-09T01:13:23.116Z,1018.21
2018-03-09T01:14:23.107Z,1018.17
2018-03-09T01:15:23.088Z,1018.2
2018-03-09T01:16:23.076Z,1018.16
2018-03-09T01:17:23.061Z,1018.14
2018-03-09T01:18:23.048Z,1018.2
2018-03-09T01:19:23.035Z,1018.19
2018-03-09T01:20:23.021Z,1018.17
2018-03-09T01:21:23.009Z,1018.16
2018-03-09T01:22:22.994Z,1018.15
2018-03-09T01:23:22.982Z,1018.12
2018-03-09T01:24:22.967Z,1018.18
2018-03-09T01:25:22.958Z,1018.21
2018-03-09T01:26:22.940Z,1018.22
2018-03-09T01:27:22.928Z,1018.25
2018-03-09T01:28:22.914Z,1018.24
2018-03-09T01:29:22.900Z,1018.29
2018-03-09T01:30:22.888Z,1018.31
2018-03-09T01:31:22.876Z,1018.38
2018-03-09T01:32:22.862Z,1018.38
2018-03-09T01:33:22.847Z,1018.37
2018-03-09T01:34:22.836Z,1018.35
2018-03-09T01:35:22.823Z,1018.32
2018-03-09T01:36:22.808Z,1018.32
2018-03-09T01:37:22.794Z,1018.33
2018-03-09T01:38:22.782Z,1018.35
2018-03-09T01:39:22.769Z,1018.37
2018-03-09T01:40:22.754Z,1018.32
2018-03-09T01:41:22.742Z,1018.31
2018-03-09T01:42:22.728Z,1018.33
2018-03-09T01:43:22.716Z,1018.33
2018-03-09T01:44:22.701Z,1018.34
2018-03-09T01:45:22.690Z,1018.36
2018-03-09T01:46:22.676Z,1018.3
2018-03-09T01:47:22.664Z,1018.25
2018-03-09T01:48:22.649Z,1018.27
2018-03-09T01:49:22.635Z,1018.17
2018-03-09T01:50:22.624Z,1018.15
2018-03-09T01:51:22.610Z,1018.1
2018-03-09T01:52:22.597Z,1018.07
2018-03-09T01:53:22.583Z,1017.97
2018-03-09T01:54:22.570Z,1017.88
2018-03-09T01:55:22.556Z,1017.94
2018-03-09T01:56:22.549Z,1017.9
2018-03-09T01:57:22.547Z,1017.86
2018-03-09T01:58:22.520Z,1017.88
2018-03-09T01:59:22.505Z,1017.86
2018-03-09T02:00:22.493Z,1017.86
2018-03-09T02:01:22.479Z,1017.8
2018-03-09T02:02:22.465Z,1017.82
2018-03-09T02:03:22.452Z,1017.84
2018-03-09T02:04:22.440Z,1017.82
2018-03-09T02:05:22.427Z,1017.89
2018-03-09T02:06:22.413Z,1017.91
2018-03-09T02:07:22.401Z,1017.95
2018-03-09T02:08:22.388Z,1018.01
2018-03-09T02:09:22.376Z,1018.05
2018-03-09T02:10:22.363Z,1018.07
2018-03-09T02:11:22.351Z,1018.13
2018-03-09T02:12:22.338Z,1018.12
2018-03-09T02:13:22.324Z,1018.25
2018-03-09T02:14:22.312Z,1018.28
2018-03-09T02:15:22.299Z,1018.33
2018-03-09T02:16:22.287Z,1018.31
2018-03-09T02:17:22.273Z,1018.36
2018-03-09T02:18:22.260Z,1018.32
2018-03-09T02:19:22.250Z,1018.35
2018-03-09T02:20:22.235Z,1018.34
2018-03-09T02:21:22.223Z,1018.35
2018-03-09T02:22:22.210Z,1018.32
2018-03-09T02:23:22.199Z,1018.31
2018-03-09T02:24:22.184Z,1018.32
2018-03-09T02:25:22.172Z,1018.31
2018-03-09T02:26:22.158Z,1018.29
2018-03-09T02:27:22.150Z,1018.21
2018-03-09T02:28:22.134Z,1018.21
2018-03-09T02:29:22.119Z,1018.14
2018-03-09T02:30:22.108Z,1018.19
2018-03-09T02:31:22.096Z,1018.14
2018-03-09T02:32:22.081Z,1018.18
2018-03-09T02:33:22.067Z,1018.18
2018-03-09T02:34:22.058Z,1018.17
2018-03-09T02:35:22.042Z,1018.12
2018-03-09T02:36:22.029Z,1018.09
2018-03-09T02:37:22.015Z,1018.05
2018-03-09T02:38:22.004Z,1018.11
2018-03-09T02:39:21.991Z,1018.09
2018-03-09T02:40:21.977Z,1018.08
2018-03-09T02:41:21.965Z,1018.05
2018-03-09T02:42:21.952Z,1018.11
2018-03-09T02:43:21.938Z,1018.16
2018-03-09T02:44:21.924Z,1018.16
2018-03-09T02:45:21.913Z,1018.17
2018-03-09T02:46:21.900Z,1018.16
2018-03-09T02:47:21.887Z,1018.17
2018-03-09T02:48:21.876Z,1018.17
2018-03-09T02:49:21.861Z,1018.16
2018-03-09T02:50:21.847Z,1018.15
2018-03-09T02:51:21.836Z,1018.2
2018-03-09T02:52:21.825Z,1018.14
2018-03-09T02:53:21.814Z,1018.22
2018-03-09T02:54:21.799Z,1018.25
2018-03-09T02:55:21.784Z,1018.32
2018-03-09T02:56:21.775Z,1018.37
2018-03-09T02:57:21.757Z,1018.45
2018-03-09T02:58:21.744Z,1018.49
2018-03-09T02:59:21.735Z,1018.48
2018-03-09T03:00:21.721Z,1018.59
2018-03-09T03:01:21.706Z,1018.58
2018-03-09T03:02:21.695Z,1018.66
2018-03-09T03:03:21.682Z,1018.68
2018-03-09T03:04:21.672Z,1018.73
2018-03-09T03:05:21.656Z,1018.78
2018-03-09T03:06:21.642Z,1018.81
2018-03-09T03:07:21.630Z,1018.87
2018-03-09T03:08:21.616Z,1018.87
2018-03-09T03:09:21.604Z,1018.86
2018-03-09T03:10:21.590Z,1018.91
2018-03-09T03:11:21.579Z,1018.92
2018-03-09T03:12:21.565Z,1019
2018-03-09T03:13:21.551Z,1019
2018-03-09T03:14:21.538Z,1018.97
2018-03-09T03:15:21.525Z,1019.02
2018-03-09T03:16:21.512Z,1019
2018-03-09T03:17:21.499Z,1019.08
2018-03-09T03:18:21.488Z,1019.08
2018-03-09T03:19:21.472Z,1019.13
2018-03-09T03:20:21.462Z,1019.08
2018-03-09T03:21:21.447Z,1019.13
2018-03-09T03:22:21.433Z,1019.19
2018-03-09T03:23:21.421Z,1019.23
2018-03-09T03:24:21.405Z,1019.24
2018-03-09T03:25:21.392Z,1019.28
2018-03-09T03:26:21.378Z,1019.25
2018-03-09T03:27:21.364Z,1019.29
2018-03-09T03:28:21.352Z,1019.32
2018-03-09T03:29:21.340Z,1019.32
2018-03-09T03:30:21.324Z,1019.36
2018-03-09T03:31:21.312Z,1019.4
2018-03-09T03:32:21.299Z,1019.4
2018-03-09T03:33:21.286Z,1019.36
2018-03-09T03:34:21.271Z,1019.43
2018-03-09T03:35:21.258Z,1019.44
2018-03-09T03:36:21.245Z,1019.41
2018-03-09T03:37:21.230Z,1019.44
2018-03-09T03:38:21.218Z,1019.49
2018-03-09T03:39:21.202Z,1019.48
2018-03-09T03:40:21.191Z,1019.52
2018-03-09T03:41:21.176Z,1019.45
2018-03-09T03:42:21.162Z,1019.48
2018-03-09T03:43:21.148Z,1019.49
2018-03-09T03:44:21.134Z,1019.53
2018-03-09T03:45:21.121Z,1019.55
2018-03-09T03:46:21.107Z,1019.59
2018-03-09T03:47:21.093Z,1019.57
2018-03-09T03:48:21.080Z,1019.59
2018-03-09T03:49:21.066Z,1019.62
2018-03-09T03:50:21.052Z,1019.61
2018-03-09T03:51:21.039Z,1019.6
2018-03-09T03:52:21.029Z,1019.62
2018-03-09T03:53:21.017Z,1019.67
2018-03-09T03:54:20.996Z,1019.68
2018-03-09T03:55:20.983Z,1019.65
2018-03-09T03:56:20.970Z,1019.66
2018-03-09T03:57:20.955Z,1019.69
2018-03-09T03:58:20.942Z,1019.68
2018-03-09T03:59:20.934Z,1019.71
2018-03-09T04:00:20.918Z,1019.72
2018-03-09T04:01:20.900Z,1019.71
2018-03-09T04:02:20.891Z,1019.7
2018-03-09T04:03:20.874Z,1019.69
2018-03-09T04:04:20.864Z,1019.69
2018-03-09T04:05:20.845Z,1019.76
2018-03-09T04:06:20.830Z,1019.73
2018-03-09T04:07:20.818Z,1019.76
2018-03-09T04:08:20.804Z,1019.74
2018-03-09T04:09:20.790Z,1019.78
2018-03-09T04:10:20.776Z,1019.77
2018-03-09T04:11:20.762Z,1019.77
2018-03-09T04:12:20.748Z,1019.73
2018-03-09T04:13:20.734Z,1019.79
2018-03-09T04:14:20.720Z,1019.78
2018-03-09T04:15:20.705Z,1019.77
2018-03-09T04:16:20.693Z,1019.79
2018-03-09T04:17:20.678Z,1019.78
2018-03-09T04:18:20.665Z,1019.78
2018-03-09T04:19:20.649Z,1019.8
2018-03-09T04:20:20.637Z,1019.8
2018-03-09T04:21:20.626Z,1019.78
2018-03-09T04:22:20.608Z,1019.8
2018-03-09T04:23:20.594Z,1019.76
2018-03-09T04:24:20.582Z,1019.72
2018-03-09T04:25:20.568Z,1019.6
2018-03-09T04:26:20.552Z,1019.59
2018-03-09T04:27:20.539Z,1019.56
2018-03-09T04:28:20.523Z,1019.56
2018-03-09T04:29:20.510Z,1019.52
2018-03-09T04:30:20.497Z,1019.51
2018-03-09T04:31:20.484Z,1019.49
2018-03-09T04:32:20.469Z,1019.42
2018-03-09T04:33:20.455Z,1019.38
2018-03-09T04:34:20.441Z,1019.43
2018-03-09T04:35:20.428Z,1019.34
2018-03-09T04:36:20.412Z,1019.45
2018-03-09T04:37:20.400Z,1019.49
2018-03-09T04:38:20.387Z,1019.53
2018-03-09T04:39:20.373Z,1019.5
2018-03-09T04:40:20.359Z,1019.44
2018-03-09T04:41:20.344Z,1019.43
2018-03-09T04:42:20.331Z,1019.41
2018-03-09T04:43:20.320Z,1019.35
2018-03-09T04:44:20.304Z,1019.27
2018-03-09T04:45:20.291Z,1019.17
2018-03-09T04:46:20.278Z,1019.1
2018-03-09T04:47:20.264Z,1019.07
2018-03-09T04:48:20.249Z,1019.02
2018-03-09T04:49:20.238Z,1019.07
2018-03-09T04:50:20.221Z,1019.03
2018-03-09T04:51:20.210Z,1019.11
2018-03-09T04:52:20.196Z,1019.04
2018-03-09T04:53:20.185Z,1019.04
2018-03-09T04:54:20.169Z,1019.06
2018-03-09T04:55:20.156Z,1019.09
2018-03-09T04:56:20.142Z,1019.02
2018-03-09T04:57:20.130Z,1019.05
2018-03-09T04:58:20.116Z,1018.9
2018-03-09T04:59:20.109Z,1018.9
2018-03-09T05:00:20.091Z,1018.95
2018-03-09T05:01:20.076Z,1018.89
2018-03-09T05:02:20.064Z,1018.83
2018-03-09T05:03:20.051Z,1018.81
2018-03-09T05:04:20.038Z,1018.82
2018-03-09T05:05:20.024Z,1018.84
2018-03-09T05:06:20.012Z,1018.77
2018-03-09T05:07:20.000Z,1018.85
2018-03-09T05:08:19.991Z,1018.81
2018-03-09T05:09:19.973Z,1018.79
2018-03-09T05:10:19.999Z,1018.8
2018-03-09T05:11:19.947Z,1018.77
2018-03-09T05:12:19.934Z,1018.75
2018-03-09T05:13:19.923Z,1018.78
2018-03-09T05:14:19.910Z,1018.81
2018-03-09T05:15:19.898Z,1018.9
2018-03-09T05:16:19.882Z,1018.95
2018-03-09T05:17:19.870Z,1019.01
2018-03-09T05:18:19.858Z,1019.02
2018-03-09T05:19:19.855Z,1019.1
2018-03-09T05:20:19.833Z,1019.12
2018-03-09T05:21:19.821Z,1019.1
2018-03-09T05:22:19.807Z,1019.05
2018-03-09T05:23:19.794Z,1019.02
2018-03-09T05:24:19.783Z,1019.08
2018-03-09T05:25:19.769Z,1019.02
2018-03-09T05:26:19.759Z,1019.03
2018-03-09T05:27:19.744Z,1019.02
2018-03-09T05:28:19.732Z,1019
2018-03-09T05:29:19.719Z,1018.94
2018-03-09T05:30:19.707Z,1018.92
2018-03-09T05:31:19.696Z,1018.9
2018-03-09T05:32:19.683Z,1018.91
2018-03-09T05:33:19.671Z,1018.84
2018-03-09T05:34:19.658Z,1018.79
2018-03-09T05:35:19.646Z,1018.84
2018-03-09T05:36:19.659Z,1018.78
2018-03-09T05:37:19.620Z,1018.84
2018-03-09T05:38:19.606Z,1018.88
2018-03-09T05:39:19.595Z,1018.89
2018-03-09T05:40:19.584Z,1018.92
2018-03-09T05:41:19.570Z,1018.92
2018-03-09T05:42:19.568Z,1018.89
2018-03-09T05:43:19.546Z,1018.87
2018-03-09T05:44:19.536Z,1018.85
2018-03-09T05:45:19.520Z,1018.89
2018-03-09T05:46:19.509Z,1018.85
2018-03-09T05:47:19.495Z,1018.9
2018-03-09T05:48:19.489Z,1018.9
2018-03-09T05:49:19.474Z,1018.88
2018-03-09T05:50:19.460Z,1018.9
2018-03-09T05:51:19.447Z,1018.88
2018-03-09T05:52:19.433Z,1018.87
2018-03-09T05:53:19.422Z,1018.9
2018-03-09T05:54:19.410Z,1018.9
2018-03-09T05:55:19.399Z,1018.93
2018-03-09T05:56:19.385Z,1018.84
2018-03-09T05:57:19.373Z,1018.81
2018-03-09T05:58:19.366Z,1018.77
2018-03-09T05:59:19.349Z,1018.75
2018-03-09T06:00:19.344Z,1018.73
2018-03-09T06:01:19.324Z,1018.82
2018-03-09T06:02:19.312Z,1018.88
2018-03-09T06:03:19.300Z,1018.92
2018-03-09T06:04:19.291Z,1018.94
2018-03-09T06:05:19.276Z,1019
2018-03-09T06:06:19.264Z,1018.93
2018-03-09T06:07:19.252Z,1018.86
2018-03-09T06:08:19.240Z,1018.9
2018-03-09T06:09:19.227Z,1018.96
2018-03-09T06:10:19.216Z,1018.96
2018-03-09T06:11:19.202Z,1019
2018-03-09T06:12:19.191Z,1018.95
2018-03-09T06:13:19.179Z,1018.97
2018-03-09T06:14:19.166Z,1018.88
2018-03-09T06:15:19.155Z,1018.84
2018-03-09T06:16:19.142Z,1018.76
2018-03-09T06:17:19.131Z,1018.64
2018-03-09T06:18:19.119Z,1018.43
2018-03-09T06:19:19.108Z,1018.42
2018-03-09T06:20:19.095Z,1018.47
2018-03-09T06:21:19.084Z,1018.44
2018-03-09T06:22:19.071Z,1018.44
2018-03-09T06:23:19.059Z,1018.45
2018-03-09T06:24:19.052Z,1018.46
2018-03-09T06:25:19.038Z,1018.48
2018-03-09T06:26:19.024Z,1018.52
2018-03-09T06:27:19.014Z,1018.5
2018-03-09T06:28:19.004Z,1018.49
2018-03-09T06:29:18.991Z,1018.52
2018-03-09T06:30:18.979Z,1018.6
2018-03-09T06:31:18.968Z,1018.57
2018-03-09T06:32:18.958Z,1018.62
2018-03-09T06:33:18.973Z,1018.59
2018-03-09T06:34:18.935Z,1018.62
2018-03-09T06:35:18.922Z,1018.56
2018-03-09T06:36:18.911Z,1018.55
2018-03-09T06:37:18.900Z,1018.59
2018-03-09T06:38:18.891Z,1018.59
2018-03-09T06:39:18.877Z,1018.59
2018-03-09T06:40:18.866Z,1018.56
2018-03-09T06:41:18.855Z,1018.58
2018-03-09T06:42:18.845Z,1018.56
2018-03-09T06:43:18.833Z,1018.55
2018-03-09T06:44:18.821Z,1018.5
2018-03-09T06:45:18.809Z,1018.49
2018-03-09T06:46:18.801Z,1018.36
2018-03-09T06:47:18.789Z,1018.03
2018-03-09T06:48:18.781Z,1017.87
2018-03-09T06:49:18.766Z,1017.6
2018-03-09T06:50:18.755Z,1017.3
2018-03-09T06:51:18.745Z,1017.23
2018-03-09T06:52:18.782Z,1016.93
2018-03-09T06:53:18.724Z,1016.67
2018-03-09T06:54:18.714Z,1016.75
2018-03-09T06:55:18.704Z,1016.87
2018-03-09T06:56:18.694Z,1016.9
2018-03-09T06:57:18.684Z,1016.8
2018-03-09T06:58:18.673Z,1016.73
2018-03-09T06:59:18.664Z,1016.61
2018-03-09T07:00:18.654Z,1016.5
2018-03-09T07:01:18.645Z,1016.48
2018-03-09T07:02:18.636Z,1016.46
2018-03-09T07:03:18.626Z,1016.64
2018-03-09T07:04:18.617Z,1016.78
2018-03-09T07:05:18.607Z,1017
2018-03-09T07:06:18.600Z,1016.79
2018-03-09T07:07:18.591Z,1016.38
2018-03-09T07:08:18.582Z,1016.19
2018-03-09T07:09:18.570Z,1016.33
2018-03-09T07:10:18.563Z,1016.03
2018-03-09T07:11:18.558Z,1016.15
2018-03-09T07:12:18.546Z,1016.4
2018-03-09T07:13:18.537Z,1016.29
2018-03-09T07:14:18.530Z,1016.43
2018-03-09T07:15:18.524Z,1016.43
2018-03-09T07:16:18.510Z,1016.1
2018-03-09T07:17:18.503Z,1015.74
2018-03-09T07:18:18.495Z,1015.82
2018-03-09T07:19:18.486Z,1015.93
2018-03-09T07:20:18.478Z,1015.75
2018-03-09T07:21:18.469Z,1015.27
2018-03-09T07:22:18.463Z,1014.78
2018-03-09T07:23:18.459Z,1014.54
2018-03-09T07:24:18.447Z,1014.18
2018-03-09T07:25:18.438Z,1014.02
2018-03-09T07:26:18.432Z,1013.73
2018-03-09T07:27:18.424Z,1013.49
2018-03-09T07:28:18.429Z,1013.28
2018-03-09T07:29:18.411Z,1013.14
2018-03-09T07:30:18.409Z,1013.09
2018-03-09T07:31:18.398Z,1013.08
2018-03-09T07:32:18.392Z,1012.93
2018-03-09T07:33:18.385Z,1012.88
2018-03-09T07:34:18.381Z,1013.23
2018-03-09T07:35:18.375Z,1013.32
2018-03-09T07:36:18.370Z,1013.27
2018-03-09T07:37:18.362Z,1013.27
2018-03-09T07:38:18.357Z,1013.25
2018-03-09T07:39:18.354Z,1013.26
2018-03-09T07:40:18.347Z,1013.21
2018-03-09T07:41:18.343Z,1013.23
2018-03-09T07:42:18.335Z,1013.16
2018-03-09T07:43:18.331Z,1013.14
2018-03-09T07:44:18.328Z,1013.19
2018-03-09T07:45:18.326Z,1013.04
2018-03-09T07:46:18.316Z,1013.1
2018-03-09T07:47:18.312Z,1013.08
2018-03-09T07:48:18.309Z,1012.93
2018-03-09T07:49:18.303Z,1012.94
2018-03-09T07:50:18.300Z,1013
2018-03-09T07:51:18.296Z,1013
2018-03-09T07:52:18.294Z,1013.1
2018-03-09T07:53:18.288Z,1013.17
2018-03-09T07:54:18.286Z,1013.16
2018-03-09T07:55:18.283Z,1013.18
2018-03-09T07:56:18.277Z,1013.28
2018-03-09T07:57:18.271Z,1013.34
2018-03-09T07:58:18.267Z,1013.55
2018-03-09T07:59:18.264Z,1013.62
2018-03-09T08:00:18.263Z,1013.89
2018-03-09T08:01:18.255Z,1014.11
2018-03-09T08:02:18.251Z,1014.36
2018-03-09T08:03:18.247Z,1014.64
2018-03-09T08:04:18.242Z,1014.78
2018-03-09T08:05:18.239Z,1014.97
2018-03-09T08:06:18.235Z,1015.16
2018-03-09T08:07:18.233Z,1015.36
2018-03-09T08:08:18.224Z,1015.53
2018-03-09T08:09:18.220Z,1015.59
2018-03-09T08:10:18.220Z,1015.79
2018-03-09T08:11:18.212Z,1015.96
2018-03-09T08:12:18.204Z,1016.24
2018-03-09T08:13:18.198Z,1016.36
2018-03-09T08:14:18.194Z,1016.39
2018-03-09T08:15:18.186Z,1016.41
2018-03-09T08:16:18.272Z,1016.5
2018-03-09T08:17:18.176Z,1016.54
2018-03-09T08:18:18.169Z,1016.6
2018-03-09T08:19:18.162Z,1016.72
2018-03-09T08:20:18.156Z,1016.8
2018-03-09T08:21:18.324Z,1016.82
2018-03-09T08:22:18.144Z,1016.95
2018-03-09T08:23:18.138Z,1017.14
2018-03-09T08:24:18.130Z,1017.23
2018-03-09T08:25:18.125Z,1017.33
2018-03-09T08:26:18.116Z,1017.46
2018-03-09T08:27:18.110Z,1017.46
2018-03-09T08:28:18.103Z,1017.47
2018-03-09T08:29:18.095Z,1017.47
2018-03-09T08:30:18.097Z,1017.46
2018-03-09T08:31:18.081Z,1017.35
2018-03-09T08:32:18.075Z,1017.5
2018-03-09T08:33:18.066Z,1017.3
2018-03-09T08:34:18.059Z,1017.21
2018-03-09T08:35:18.052Z,1017.12
2018-03-09T08:36:18.047Z,1017.11
2018-03-09T08:37:18.036Z,1017.11
2018-03-09T08:38:18.027Z,1017.11
2018-03-09T08:39:18.024Z,1017.06
2018-03-09T08:40:18.015Z,1016.96
2018-03-09T08:41:18.007Z,1017.03
2018-03-09T08:42:18.000Z,1016.96
2018-03-09T08:43:17.998Z,1016.98
2018-03-09T08:44:17.985Z,1016.98
2018-03-09T08:45:17.977Z,1016.95
2018-03-09T08:46:17.968Z,1016.96
2018-03-09T08:47:17.961Z,1017.13
2018-03-09T08:48:17.953Z,1017.2
2018-03-09T08:49:17.950Z,1017.28
2018-03-09T08:50:17.938Z,1017.27
2018-03-09T08:51:17.930Z,1017.24
2018-03-09T08:52:17.923Z,1017.23
2018-03-09T08:53:17.914Z,1017.09
2018-03-09T08:54:17.908Z,1017.08
2018-03-09T08:55:17.901Z,1017.01
2018-03-09T08:56:17.892Z,1017.01
2018-03-09T08:57:17.887Z,1016.83
2018-03-09T08:58:17.885Z,1016.85
2018-03-09T08:59:17.871Z,1016.79
2018-03-09T09:00:17.864Z,1016.7
2018-03-09T09:01:17.857Z,1016.69
2018-03-09T09:02:17.848Z,1016.59
2018-03-09T09:03:17.845Z,1016.59
2018-03-09T09:04:17.833Z,1016.41
2018-03-09T09:05:17.826Z,1016.24
2018-03-09T09:06:17.834Z,1016.14
2018-03-09T09:07:17.823Z,1016.04
2018-03-09T09:08:17.807Z,1015.99
2018-03-09T09:09:17.800Z,1015.96
2018-03-09T09:10:17.799Z,1015.94
2018-03-09T09:11:17.785Z,1015.91
2018-03-09T09:12:17.777Z,1015.9
2018-03-09T09:13:17.780Z,1015.95
2018-03-09T09:14:17.763Z,1015.93
2018-03-09T09:15:17.758Z,1015.98
2018-03-09T09:16:17.751Z,1015.95
2018-03-09T09:17:17.744Z,1015.98
2018-03-09T09:18:17.736Z,1015.95
2018-03-09T09:19:17.731Z,1016.05
2018-03-09T09:20:17.723Z,1016.04
2018-03-09T09:21:17.717Z,1016.14
2018-03-09T09:22:17.711Z,1016.05
2018-03-09T09:23:17.706Z,1016.09
2018-03-09T09:24:17.696Z,1016.17
2018-03-09T09:25:17.692Z,1016.26
2018-03-09T09:26:17.685Z,1016.13
2018-03-09T09:27:17.682Z,1016.09
2018-03-09T09:28:17.673Z,1016.1
2018-03-09T09:29:17.717Z,1016
2018-03-09T09:30:17.659Z,1015.96
2018-03-09T09:31:17.653Z,1015.86
2018-03-09T09:32:17.662Z,1015.81
2018-03-09T09:33:17.640Z,1015.92
2018-03-09T09:34:17.636Z,1015.83
2018-03-09T09:35:17.628Z,1015.88
2018-03-09T09:36:17.622Z,1015.83
2018-03-09T09:37:17.616Z,1015.91
2018-03-09T09:38:17.610Z,1015.84
2018-03-09T09:39:17.603Z,1015.78
2018-03-09T09:40:17.599Z,1015.78
2018-03-09T09:41:17.592Z,1015.84
2018-03-09T09:42:17.585Z,1015.94
2018-03-09T09:43:17.579Z,1015.93
2018-03-09T09:44:17.574Z,1016.07
2018-03-09T09:45:17.567Z,1016.08
2018-03-09T09:46:17.561Z,1016.27
2018-03-09T09:47:17.556Z,1016.35
2018-03-09T09:48:17.548Z,1016.36
2018-03-09T09:49:17.543Z,1016.37
2018-03-09T09:50:17.538Z,1016.34
2018-03-09T09:51:17.531Z,1016.21
2018-03-09T09:52:17.529Z,1016.15
2018-03-09T09:53:17.548Z,1016.14
2018-03-09T09:54:17.516Z,1016.06
2018-03-09T09:55:17.515Z,1016.2
2018-03-09T09:56:17.502Z,1016.21
2018-03-09T09:57:17.497Z,1016.09
2018-03-09T09:58:17.491Z,1016.04
2018-03-09T09:59:17.484Z,1015.95
2018-03-09T10:00:17.477Z,1016.02
2018-03-09T10:01:17.470Z,1016.03
2018-03-09T10:02:17.466Z,1016.07
2018-03-09T10:03:17.464Z,1016.15
2018-03-09T10:04:17.468Z,1016.15
2018-03-09T10:05:17.451Z,1016.07
2018-03-09T10:06:17.442Z,1016.09
2018-03-09T10:07:17.459Z,1016.02
2018-03-09T10:08:17.447Z,1015.93
2018-03-09T10:09:17.424Z,1015.89
2018-03-09T10:10:17.420Z,1015.79
2018-03-09T10:11:17.413Z,1015.94
2018-03-09T10:12:17.409Z,1016.03
2018-03-09T10:13:17.401Z,1016.05
2018-03-09T10:14:17.397Z,1015.98
2018-03-09T10:15:17.391Z,1015.91
2018-03-09T10:16:17.413Z,1015.76
2018-03-09T10:17:17.384Z,1015.6
2018-03-09T10:18:17.394Z,1015.64
2018-03-09T10:19:17.373Z,1015.77
2018-03-09T10:20:17.363Z,1015.87
2018-03-09T10:21:17.359Z,1015.89
2018-03-09T10:22:17.352Z,1015.88
2018-03-09T10:23:17.346Z,1015.92
2018-03-09T10:24:17.347Z,1015.96
2018-03-09T10:25:17.339Z,1015.94
2018-03-09T10:26:17.331Z,1016
2018-03-09T10:27:17.326Z,1016.06
2018-03-09T10:28:17.320Z,1016.06
2018-03-09T10:29:17.315Z,1016
2018-03-09T10:30:17.308Z,1016.01
2018-03-09T10:31:17.303Z,1016.04
2018-03-09T10:32:17.307Z,1015.95
2018-03-09T10:33:17.298Z,1015.89
2018-03-09T10:34:17.291Z,1015.81
2018-03-09T10:35:17.281Z,1015.67
2018-03-09T10:36:17.276Z,1015.73
2018-03-09T10:37:17.270Z,1015.71
2018-03-09T10:38:17.274Z,1015.66
2018-03-09T10:39:17.260Z,1015.58
2018-03-09T10:40:17.260Z,1015.77
2018-03-09T10:41:17.254Z,1015.91
2018-03-09T10:42:17.244Z,1016.1
2018-03-09T10:43:17.238Z,1016.34
2018-03-09T10:44:17.232Z,1016.49
2018-03-09T10:45:17.226Z,1016.57
2018-03-09T10:46:17.226Z,1016.69
2018-03-09T10:47:17.218Z,1016.69
2018-03-09T10:48:17.210Z,1016.64
2018-03-09T10:49:17.205Z,1016.55
2018-03-09T10:50:17.200Z,1016.58
2018-03-09T10:51:17.196Z,1016.49
2018-03-09T10:52:17.188Z,1016.42
2018-03-09T10:53:17.183Z,1016.44
2018-03-09T10:54:17.179Z,1016.17
2018-03-09T10:55:17.178Z,1016.12
2018-03-09T10:56:17.173Z,1016.02
2018-03-09T10:57:17.160Z,1016.04
2018-03-09T10:58:17.155Z,1015.93
2018-03-09T10:59:17.149Z,1015.88
2018-03-09T11:00:17.151Z,1015.8
2018-03-09T11:01:17.140Z,1015.64
2018-03-09T11:02:17.143Z,1015.62
2018-03-09T11:03:17.127Z,1015.66
2018-03-09T11:04:17.121Z,1015.63
2018-03-09T11:05:17.117Z,1015.62
2018-03-09T11:06:17.112Z,1015.63
2018-03-09T11:07:17.106Z,1015.55
2018-03-09T11:08:17.102Z,1015.51
2018-03-09T11:09:17.097Z,1015.67
2018-03-09T11:10:17.091Z,1015.69
2018-03-09T11:11:17.088Z,1015.71
2018-03-09T11:12:17.080Z,1015.68
2018-03-09T11:13:17.099Z,1015.85
2018-03-09T11:14:17.071Z,1015.87
2018-03-09T11:15:17.068Z,1015.9
2018-03-09T11:16:17.062Z,1015.95
2018-03-09T11:17:17.065Z,1016
2018-03-09T11:18:17.053Z,1015.91
2018-03-09T11:19:17.047Z,1015.9
2018-03-09T11:20:17.042Z,1015.89
2018-03-09T11:21:17.036Z,1015.83
2018-03-09T11:22:17.031Z,1015.77
2018-03-09T11:23:17.032Z,1015.65
2018-03-09T11:24:17.025Z,1015.64
2018-03-09T11:25:17.022Z,1015.58
2018-03-09T11:26:17.012Z,1015.53
2018-03-09T11:27:17.009Z,1015.65
2018-03-09T11:28:17.010Z,1015.69
2018-03-09T11:29:16.999Z,1015.76
2018-03-09T11:30:16.995Z,1015.84
2018-03-09T11:31:16.989Z,1015.83
2018-03-09T11:32:16.994Z,1015.77
2018-03-09T11:33:16.979Z,1015.69
2018-03-09T11:34:16.981Z,1015.76
2018-03-09T11:35:16.969Z,1015.77
2018-03-09T11:36:16.965Z,1015.84
2018-03-09T11:37:16.965Z,1015.79
2018-03-09T11:38:16.958Z,1015.83
2018-03-09T11:39:16.953Z,1015.79
2018-03-09T11:40:16.945Z,1015.82
2018-03-09T11:41:16.941Z,1015.77
2018-03-09T11:42:16.937Z,1015.81
2018-03-09T11:43:16.972Z,1015.77
2018-03-09T11:44:16.930Z,1015.75
2018-03-09T11:45:16.922Z,1015.69
2018-03-09T11:46:16.925Z,1015.74
2018-03-09T11:47:16.913Z,1015.76
2018-03-09T11:48:16.915Z,1015.76
2018-03-09T11:49:16.903Z,1015.81
2018-03-09T11:50:16.898Z,1015.8
2018-03-09T11:51:16.895Z,1015.78
2018-03-09T11:52:16.921Z,1015.87
2018-03-09T11:53:16.885Z,1015.91
2018-03-09T11:54:16.880Z,1015.86
2018-03-09T11:55:16.878Z,1015.83
2018-03-09T11:56:16.871Z,1015.89
2018-03-09T11:57:16.872Z,1015.91
2018-03-09T11:58:16.862Z,1015.95
2018-03-09T11:59:16.856Z,1016
2018-03-09T12:00:16.855Z,1015.99
2018-03-09T12:01:16.846Z,1016
2018-03-09T12:02:16.897Z,1015.9
2018-03-09T12:03:16.838Z,1015.87
2018-03-09T12:04:16.834Z,1015.79
2018-03-09T12:05:16.882Z,1015.73
2018-03-09T12:06:16.824Z,1015.7
2018-03-09T12:07:16.819Z,1015.69
2018-03-09T12:08:16.818Z,1015.71
2018-03-09T12:09:16.811Z,1015.66